createdAt,value
2018-08-30T00:01:38.919Z,0.00
2018-08-30T00:04:38.871Z,0.00
2018-08-30T00:07:38.848Z,0.00
2018-08-30T00:10:38.812Z,0.00
2018-08-30T00:13:38.774Z,0.00
2018-08-30T00:16:38.944Z,0.00
2018-08-30T00:19:38.721Z,0.00
2018-08-30T00:22:38.678Z,0.00
2018-08-30T00:25:38.685Z,0.00
2018-08-30T00:28:38.603Z,0.00
2018-08-30T00:31:38.569Z,0.00
2018-08-30T00:34:38.529Z,0.00
2018-08-30T00:37:38.496Z,0.00
2018-08-30T00:40:38.459Z,0.00
2018-08-30T00:43:38.447Z,0.00
2018-08-30T00:46:38.375Z,0.00
2018-08-30T00:49:38.376Z,0.00
2018-08-30T00:52:38.336Z,0.00
2018-08-30T00:55:38.291Z,0.00
2018-08-30T00:58:38.248Z,0.00
2018-08-30T01:01:38.269Z,0.00
2018-08-30T01:04:38.187Z,0.00
2018-08-30T01:07:38.155Z,0.00
2018-08-30T01:10:38.137Z,0.00
2018-08-30T01:13:38.099Z,0.00
2018-08-30T01:16:38.041Z,0.00
2018-08-30T01:19:38.030Z,0.00
2018-08-30T01:22:38.000Z,0.00
2018-08-30T01:25:37.981Z,0.00
2018-08-30T01:28:37.911Z,0.00
2018-08-30T01:31:37.993Z,0.00
2018-08-30T01:34:37.853Z,0.00
2018-08-30T01:37:37.922Z,0.00
2018-08-30T01:40:37.822Z,0.00
2018-08-30T01:43:37.764Z,0.00
2018-08-30T01:46:37.713Z,0.00
2018-08-30T01:49:37.712Z,0.00
2018-08-30T01:52:37.639Z,0.00
2018-08-30T01:55:37.625Z,0.00
2018-08-30T01:58:37.572Z,0.00
2018-08-30T02:01:37.587Z,0.00
2018-08-30T02:04:37.526Z,0.00
2018-08-30T02:07:37.508Z,0.00
2018-08-30T02:10:37.517Z,0.00
2018-08-30T02:13:37.418Z,0.00
2018-08-30T02:16:37.463Z,0.00
2018-08-30T02:19:37.350Z,0.00
2018-08-30T02:22:37.298Z,0.00
2018-08-30T02:25:37.334Z,0.00
2018-08-30T02:28:37.258Z,0.00
2018-08-30T02:31:37.215Z,0.00
2018-08-30T02:34:37.249Z,0.00
2018-08-30T02:37:37.150Z,0.00
2018-08-30T02:40:37.106Z,0.00
2018-08-30T02:43:37.075Z,0.00
2018-08-30T02:46:37.116Z,0.00
2018-08-30T02:49:37.016Z,0.00
2018-08-30T02:52:36.978Z,0.00
2018-08-30T02:55:37.009Z,0.00
2018-08-30T02:58:36.883Z,0.00
2018-08-30T03:01:36.891Z,0.00
2018-08-30T03:04:36.848Z,0.00
2018-08-30T03:07:36.809Z,0.00
2018-08-30T03:10:36.761Z,0.00
2018-08-30T03:13:36.765Z,0.00
2018-08-30T03:16:36.674Z,0.00
2018-08-30T03:19:36.708Z,0.00
2018-08-30T03:22:36.614Z,0.00
2018-08-30T03:25:36.729Z,0.00
2018-08-30T03:28:36.556Z,0.00
2018-08-30T03:31:36.540Z,0.00
2018-08-30T03:34:36.476Z,0.00
2018-08-30T03:37:36.607Z,0.00
2018-08-30T03:40:36.430Z,0.00
2018-08-30T03:43:36.401Z,0.00
2018-08-30T03:46:36.346Z,0.00
2018-08-30T03:49:36.340Z,0.00
2018-08-30T03:52:36.271Z,0.00
2018-08-30T03:55:36.266Z,0.00
2018-08-30T03:58:36.230Z,0.00
2018-08-30T04:01:36.200Z,0.00
2018-08-30T04:04:36.176Z,0.00
2018-08-30T04:07:36.148Z,0.00
2018-08-30T04:10:37.073Z,0.00
2018-08-30T04:13:36.238Z,0.00
2018-08-30T04:16:36.015Z,0.00
2018-08-30T04:19:36.016Z,0.00
2018-08-30T04:22:35.941Z,0.00
2018-08-30T04:25:35.927Z,0.00
2018-08-30T04:28:35.881Z,0.00
2018-08-30T04:31:35.969Z,0.00
2018-08-30T04:34:35.828Z,0.00
2018-08-30T04:37:35.777Z,0.00
2018-08-30T04:40:35.737Z,0.00
2018-08-30T04:43:35.731Z,5.62
2018-08-30T04:46:35.645Z,5.62
2018-08-30T04:49:35.682Z,11.25
2018-08-30T04:52:35.591Z,11.25
2018-08-30T04:55:35.640Z,11.25
2018-08-30T04:58:35.569Z,16.88
2018-08-30T05:01:38.650Z,22.50
2018-08-30T05:04:35.470Z,28.12
2018-08-30T05:09:16.974Z,39.38
2018-08-30T05:12:15.409Z,45.00
2018-08-30T05:15:16.705Z,50.62
2018-08-30T05:18:18.796Z,56.25
2018-08-30T05:21:15.261Z,61.88
2018-08-30T05:24:15.285Z,67.50
2018-08-30T05:27:15.198Z,67.50
2018-08-30T05:30:15.796Z,73.12
2018-08-30T05:33:15.173Z,90.00
2018-08-30T05:36:16.299Z,78.75
2018-08-30T05:39:16.102Z,84.38
2018-08-30T05:42:15.021Z,84.38
2018-08-30T05:45:15.029Z,106.88
2018-08-30T05:48:14.991Z,101.25
2018-08-30T05:51:15.418Z,118.12
2018-08-30T05:54:14.890Z,140.62
2018-08-30T05:57:34.368Z,174.38
2018-08-30T06:00:14.843Z,191.25
2018-08-30T06:03:15.926Z,202.50
2018-08-30T06:06:17.336Z,219.38
2018-08-30T06:09:14.797Z,202.50
2018-08-30T06:12:17.345Z,196.88
2018-08-30T06:15:14.654Z,241.88
2018-08-30T06:18:14.602Z,230.62
2018-08-30T06:21:14.572Z,196.88
2018-08-30T06:24:14.660Z,180.00
2018-08-30T06:27:14.691Z,258.75
2018-08-30T06:30:15.366Z,331.88
2018-08-30T06:33:17.330Z,230.62
2018-08-30T06:36:14.387Z,303.75
2018-08-30T06:39:14.594Z,275.62
2018-08-30T06:42:15.354Z,219.38
2018-08-30T06:45:14.344Z,236.25
2018-08-30T06:48:14.307Z,270.00
2018-08-30T06:51:14.247Z,343.12
2018-08-30T06:54:14.245Z,410.62
2018-08-30T06:57:14.174Z,579.38
2018-08-30T07:00:14.120Z,736.88
2018-08-30T07:03:14.114Z,697.50
2018-08-30T07:11:44.986Z,534.38
2018-08-30T07:15:57.133Z,888.75
2018-08-30T07:20:05.492Z,472.50
2018-08-30T07:23:08.095Z,534.38
2018-08-30T07:26:24.185Z,630.00
2018-08-30T07:29:05.555Z,669.38
2018-08-30T07:32:15.977Z,787.50
2018-08-30T07:35:19.856Z,635.62
2018-08-30T07:38:07.564Z,523.12
2018-08-30T07:45:15.049Z,686.25
2018-08-30T07:48:15.025Z,703.12
2018-08-30T07:51:14.874Z,388.12
2018-08-30T07:54:14.968Z,483.75
2018-08-30T07:57:16.110Z,793.12
2018-08-30T08:00:18.083Z,686.25
2018-08-30T08:03:14.825Z,961.88
2018-08-30T08:06:14.820Z,585.00
2018-08-30T08:09:14.790Z,956.25
2018-08-30T08:12:14.964Z,658.12
2018-08-30T08:15:14.733Z,821.25
2018-08-30T08:18:16.566Z,646.88
2018-08-30T08:21:14.695Z,1417.50
2018-08-30T08:24:16.048Z,1051.88
2018-08-30T08:27:14.473Z,1456.88
2018-08-30T08:30:14.484Z,708.75
2018-08-30T08:33:14.399Z,1552.50
2018-08-30T08:36:14.450Z,1698.75
2018-08-30T08:39:14.340Z,1440.00
2018-08-30T08:42:14.330Z,770.62
2018-08-30T08:45:14.402Z,1681.88
2018-08-30T08:48:14.339Z,1861.88
2018-08-30T08:51:14.208Z,1321.88
2018-08-30T08:54:14.188Z,928.12
2018-08-30T08:57:14.232Z,1940.62
2018-08-30T09:00:14.152Z,753.75
2018-08-30T09:03:14.068Z,1963.12
2018-08-30T09:06:14.057Z,1828.12
2018-08-30T09:09:14.035Z,1794.38
2018-08-30T09:12:13.998Z,1648.12
2018-08-30T09:15:13.967Z,883.12
2018-08-30T09:18:13.973Z,933.75
2018-08-30T09:21:14.001Z,2064.38
2018-08-30T09:24:13.842Z,1102.50
2018-08-30T09:27:13.878Z,1833.75
2018-08-30T09:30:13.781Z,1153.12
2018-08-30T09:33:13.730Z,2126.25
2018-08-30T09:36:13.933Z,2019.38
2018-08-30T09:39:13.666Z,1046.25
2018-08-30T09:42:13.658Z,855.00
2018-08-30T09:45:13.642Z,821.25
2018-08-30T09:48:13.684Z,1985.62
2018-08-30T09:51:13.566Z,2221.88
2018-08-30T09:54:13.644Z,2030.62
2018-08-30T09:57:13.636Z,2143.12
2018-08-30T10:00:13.460Z,2086.88
2018-08-30T10:03:13.403Z,2154.38
2018-08-30T10:06:13.429Z,1366.88
2018-08-30T10:09:13.351Z,2345.62
2018-08-30T10:12:13.475Z,866.25
2018-08-30T10:15:13.271Z,2418.75
2018-08-30T10:18:13.377Z,1282.50
2018-08-30T10:21:13.264Z,2300.62
2018-08-30T10:24:13.189Z,849.38
2018-08-30T10:27:13.156Z,2441.25
2018-08-30T10:30:13.125Z,1113.75
2018-08-30T10:33:13.190Z,2188.12
2018-08-30T10:36:13.157Z,2278.12
2018-08-30T10:39:13.127Z,1591.88
2018-08-30T10:42:13.060Z,2385.00
2018-08-30T10:45:13.052Z,2396.25
2018-08-30T10:48:12.947Z,1867.50
2018-08-30T10:51:12.949Z,2463.75
2018-08-30T10:54:12.877Z,1721.25
2018-08-30T10:57:12.859Z,894.38
2018-08-30T11:00:13.549Z,2137.50
2018-08-30T11:03:12.766Z,2469.38
2018-08-30T11:06:12.794Z,1209.38
2018-08-30T11:09:12.719Z,2418.75
2018-08-30T11:12:12.702Z,2418.75
2018-08-30T11:15:12.664Z,2323.12
2018-08-30T11:18:12.633Z,2340.00
2018-08-30T11:21:12.594Z,2323.12
2018-08-30T11:24:12.557Z,2435.62
2018-08-30T11:27:12.486Z,2396.25
2018-08-30T11:30:12.480Z,2283.75
2018-08-30T11:33:12.440Z,2514.38
2018-08-30T11:36:12.409Z,2553.75
2018-08-30T11:39:12.393Z,2497.50
2018-08-30T11:42:12.439Z,922.50
2018-08-30T11:45:12.299Z,2491.88
2018-08-30T11:48:12.435Z,950.62
2018-08-30T11:51:12.304Z,2441.25
2018-08-30T11:54:12.245Z,2531.25
2018-08-30T11:57:12.229Z,2441.25
2018-08-30T12:00:12.150Z,2525.62
2018-08-30T12:03:12.111Z,984.38
2018-08-30T12:06:12.098Z,2475.00
2018-08-30T12:09:12.030Z,838.12
2018-08-30T12:12:12.046Z,849.38
2018-08-30T12:15:11.990Z,2238.75
2018-08-30T12:18:11.972Z,2272.50
2018-08-30T12:21:11.915Z,2244.38
2018-08-30T12:24:12.044Z,900.00
2018-08-30T12:27:12.170Z,1265.62
2018-08-30T12:30:11.984Z,2396.25
2018-08-30T12:33:11.844Z,1766.25
2018-08-30T12:36:11.835Z,2390.62
2018-08-30T12:39:11.860Z,2255.62
2018-08-30T12:42:11.708Z,916.88
2018-08-30T12:45:11.707Z,939.38
2018-08-30T12:48:11.700Z,2193.75
2018-08-30T12:51:11.782Z,883.12
2018-08-30T12:54:11.650Z,2103.75
2018-08-30T12:57:11.526Z,2053.12
2018-08-30T13:00:11.622Z,1996.88
2018-08-30T13:03:11.594Z,1794.38
2018-08-30T13:06:11.848Z,939.38
2018-08-30T13:09:11.852Z,978.75
2018-08-30T13:12:11.830Z,1023.75
2018-08-30T13:15:11.862Z,1901.25
2018-08-30T13:18:11.522Z,905.62
2018-08-30T13:21:11.536Z,967.50
2018-08-30T13:24:11.507Z,1946.25
2018-08-30T13:27:18.515Z,1811.25
2018-08-30T13:30:11.650Z,1473.75
2018-08-30T13:33:11.535Z,1018.12
2018-08-30T13:36:11.504Z,1113.75
2018-08-30T13:39:11.465Z,1743.75
2018-08-30T13:42:11.622Z,1777.50
2018-08-30T13:45:11.268Z,866.25
2018-08-30T13:48:11.270Z,911.25
2018-08-30T13:51:11.425Z,1018.12
2018-08-30T13:54:11.430Z,1046.25
2018-08-30T13:57:11.384Z,967.50
2018-08-30T14:00:11.760Z,973.12
2018-08-30T14:03:11.113Z,1006.88
2018-08-30T14:06:11.117Z,1051.88
2018-08-30T14:09:11.257Z,855.00
2018-08-30T14:12:11.049Z,978.75
2018-08-30T14:15:11.280Z,585.00
2018-08-30T14:18:10.665Z,461.25
2018-08-30T14:21:10.684Z,506.25
2018-08-30T14:24:10.616Z,669.38
2018-08-30T14:27:10.533Z,804.38
2018-08-30T14:30:10.497Z,1237.50
2018-08-30T14:33:10.568Z,641.25
2018-08-30T14:36:10.451Z,1125.00
2018-08-30T14:39:10.416Z,871.88
2018-08-30T14:42:11.113Z,1518.75
2018-08-30T14:45:10.323Z,1636.88
2018-08-30T14:48:10.517Z,1535.62
2018-08-30T14:51:10.249Z,1501.88
2018-08-30T14:54:10.401Z,1310.62
2018-08-30T14:57:10.295Z,1383.75
2018-08-30T15:00:10.423Z,1400.62
2018-08-30T15:03:10.122Z,1288.12
2018-08-30T15:06:10.102Z,1355.62
2018-08-30T15:09:10.048Z,1366.88
2018-08-30T15:12:10.044Z,1389.38
2018-08-30T15:15:10.046Z,1333.12
2018-08-30T15:18:09.956Z,1248.75
2018-08-30T15:21:09.975Z,1164.38
2018-08-30T15:24:09.962Z,1170.00
2018-08-30T15:27:10.028Z,731.25
2018-08-30T15:30:09.908Z,748.12
2018-08-30T15:33:09.838Z,641.25
2018-08-30T15:36:09.811Z,1080.00
2018-08-30T15:39:11.576Z,978.75
2018-08-30T15:42:09.809Z,860.62
2018-08-30T15:45:09.697Z,478.12
2018-08-30T15:48:09.684Z,399.38
2018-08-30T15:51:09.618Z,326.25
2018-08-30T15:54:10.084Z,270.00
2018-08-30T15:57:09.594Z,303.75
2018-08-30T16:00:09.499Z,292.50
2018-08-30T16:03:09.519Z,421.88
2018-08-30T16:06:09.470Z,410.62
2018-08-30T16:09:09.451Z,466.88
2018-08-30T16:12:09.388Z,489.38
2018-08-30T16:15:09.321Z,495.00
2018-08-30T16:18:09.322Z,528.75
2018-08-30T16:21:10.033Z,399.38
2018-08-30T16:24:09.220Z,393.75
2018-08-30T16:27:09.172Z,421.88
2018-08-30T16:30:09.149Z,388.12
2018-08-30T16:33:09.103Z,405.00
2018-08-30T16:36:09.136Z,399.38
2018-08-30T16:39:09.068Z,489.38
2018-08-30T16:42:09.076Z,489.38
2018-08-30T16:45:09.013Z,438.75
2018-08-30T16:48:08.975Z,489.38
2018-08-30T16:51:08.958Z,376.88
2018-08-30T16:54:08.977Z,326.25
2018-08-30T16:57:08.872Z,371.25
2018-08-30T17:00:08.921Z,286.88
2018-08-30T17:03:08.764Z,247.50
2018-08-30T17:06:08.748Z,213.75
2018-08-30T17:09:08.693Z,202.50
2018-08-30T17:12:08.683Z,174.38
2018-08-30T17:15:08.629Z,168.75
2018-08-30T17:18:08.639Z,163.12
2018-08-30T17:21:08.569Z,174.38
2018-08-30T17:24:08.560Z,196.88
2018-08-30T17:27:08.493Z,196.88
2018-08-30T17:30:08.525Z,196.88
2018-08-30T17:33:08.457Z,185.62
2018-08-30T17:36:08.426Z,180.00
2018-08-30T17:39:08.377Z,163.12
2018-08-30T17:42:08.389Z,163.12
2018-08-30T17:45:08.356Z,146.25
2018-08-30T17:48:08.299Z,135.00
2018-08-30T17:51:08.227Z,123.75
2018-08-30T17:54:08.208Z,106.88
2018-08-30T17:57:08.196Z,101.25
2018-08-30T18:00:08.146Z,90.00
2018-08-30T18:03:08.110Z,73.12
2018-08-30T18:06:08.091Z,61.88
2018-08-30T18:09:08.023Z,56.25
2018-08-30T18:12:08.002Z,45.00
2018-08-30T18:15:07.983Z,33.75
2018-08-30T18:18:08.049Z,22.50
2018-08-30T18:21:07.890Z,16.88
2018-08-30T18:24:07.889Z,11.25
2018-08-30T18:27:07.815Z,11.25
2018-08-30T18:30:07.799Z,5.62
2018-08-30T18:33:07.770Z,5.62
2018-08-30T18:36:07.742Z,0.00
2018-08-30T18:39:07.681Z,0.00
2018-08-30T18:42:08.690Z,0.00
2018-08-30T18:45:07.610Z,0.00
2018-08-30T18:48:07.619Z,0.00
2018-08-30T18:51:07.556Z,0.00
2018-08-30T18:54:07.522Z,0.00
2018-08-30T18:57:07.482Z,0.00
2018-08-30T19:00:07.497Z,0.00
2018-08-30T19:03:07.415Z,0.00
2018-08-30T19:06:07.468Z,0.00
2018-08-30T19:09:08.212Z,0.00
2018-08-30T19:12:09.160Z,0.00
2018-08-30T19:15:07.391Z,0.00
2018-08-30T19:18:07.284Z,0.00
2018-08-30T19:21:07.244Z,0.00
2018-08-30T19:24:07.293Z,0.00
2018-08-30T19:27:07.213Z,0.00
2018-08-30T19:30:07.141Z,0.00
2018-08-30T19:33:07.104Z,0.00
2018-08-30T19:36:07.078Z,0.00
2018-08-30T19:39:07.000Z,0.00
2018-08-30T19:42:06.982Z,0.00
2018-08-30T19:45:06.949Z,0.00
2018-08-30T19:48:06.917Z,0.00
2018-08-30T19:51:06.866Z,0.00
2018-08-30T19:54:06.857Z,0.00
2018-08-30T19:57:06.819Z,0.00
2018-08-30T20:00:06.787Z,0.00
2018-08-30T20:03:06.737Z,0.00
2018-08-30T20:06:06.730Z,0.00
2018-08-30T20:09:06.721Z,0.00
2018-08-30T20:12:08.630Z,0.00
2018-08-30T20:15:06.625Z,0.00
2018-08-30T20:18:08.543Z,0.00
2018-08-30T20:21:06.520Z,0.00
2018-08-30T20:24:06.521Z,0.00
2018-08-30T20:27:06.472Z,0.00
2018-08-30T20:30:06.460Z,0.00
2018-08-30T20:33:06.391Z,0.00
2018-08-30T20:36:06.369Z,0.00
2018-08-30T20:39:06.346Z,0.00
2018-08-30T20:42:06.309Z,0.00
2018-08-30T20:45:06.256Z,0.00
2018-08-30T20:48:08.068Z,0.00
2018-08-30T20:51:07.225Z,0.00
2018-08-30T20:54:07.179Z,0.00
2018-08-30T20:57:06.276Z,0.00
2018-08-30T21:00:06.147Z,0.00
2018-08-30T21:03:06.063Z,0.00
2018-08-30T21:06:06.030Z,0.00
2018-08-30T21:09:05.996Z,0.00
2018-08-30T21:12:07.561Z,0.00
2018-08-30T21:15:05.909Z,0.00
2018-08-30T21:18:05.895Z,0.00
2018-08-30T21:21:05.912Z,0.00
2018-08-30T21:24:05.841Z,0.00
2018-08-30T21:27:12.703Z,0.00
2018-08-30T21:30:06.764Z,0.00
2018-08-30T21:33:06.701Z,0.00
2018-08-30T21:36:05.769Z,0.00
2018-08-30T21:39:05.660Z,0.00
2018-08-30T21:42:07.542Z,0.00
2018-08-30T21:45:05.601Z,0.00
2018-08-30T21:48:05.569Z,0.00
2018-08-30T21:51:06.519Z,0.00
2018-08-30T21:54:07.032Z,0.00
2018-08-30T21:57:05.425Z,0.00
2018-08-30T22:00:05.424Z,0.00
2018-08-30T22:03:05.387Z,0.00
2018-08-30T22:06:07.081Z,0.00
2018-08-30T22:09:05.296Z,0.00
2018-08-30T22:12:05.287Z,0.00
2018-08-30T22:15:05.241Z,0.00
2018-08-30T22:18:07.048Z,0.00
2018-08-30T22:21:05.166Z,0.00
2018-08-30T22:24:05.143Z,0.00
2018-08-30T22:27:05.092Z,0.00
2018-08-30T22:30:05.088Z,0.00
2018-08-30T22:33:05.028Z,0.00
2018-08-30T22:36:06.535Z,0.00
2018-08-30T22:39:04.993Z,0.00
2018-08-30T22:42:04.945Z,0.00
2018-08-30T22:45:04.916Z,0.00
2018-08-30T22:48:04.888Z,0.00
2018-08-30T22:51:04.832Z,0.00
2018-08-30T22:54:04.792Z,0.00
2018-08-30T22:57:05.062Z,0.00
2018-08-30T23:00:04.730Z,0.00
2018-08-30T23:03:04.689Z,0.00
2018-08-30T23:06:05.680Z,0.00
2018-08-30T23:09:04.623Z,0.00
2018-08-30T23:12:06.516Z,0.00
2018-08-30T23:15:04.555Z,0.00
2018-08-30T23:18:04.567Z,0.00
2018-08-30T23:21:04.480Z,0.00
2018-08-30T23:24:04.482Z,0.00
2018-08-30T23:27:04.415Z,0.00
2018-08-30T23:30:04.443Z,0.00
2018-08-30T23:33:04.367Z,0.00
2018-08-30T23:36:07.837Z,0.00
2018-08-30T23:39:04.316Z,0.00
2018-08-30T23:42:04.228Z,0.00
2018-08-30T23:45:04.231Z,0.00
2018-08-30T23:48:04.196Z,0.00
2018-08-30T23:51:04.160Z,0.00
2018-08-30T23:54:04.111Z,0.00
2018-08-30T23:57:04.085Z,0.00
